createdAt,value
2023-06-01T00:02:09.027Z,101491.88
2023-06-01T00:04:41.884Z,101490.16
2023-06-01T00:07:11.488Z,101492.75
2023-06-01T00:09:38.757Z,101488.44
2023-06-01T00:12:06.860Z,101487.59
2023-06-01T00:14:34.160Z,101472.88
2023-06-01T00:17:01.513Z,101472.88
2023-06-01T00:19:28.592Z,101475.47
2023-06-01T00:21:56.900Z,101471.16
2023-06-01T00:24:24.488Z,101475.47
2023-06-01T00:26:54.386Z,101478.06
2023-06-01T00:29:21.975Z,101472.00
2023-06-01T00:31:49.038Z,101469.41
2023-06-01T00:34:16.291Z,101466.78
2023-06-01T00:36:43.237Z,101461.63
2023-06-01T00:39:10.372Z,101465.09
2023-06-01T00:41:37.431Z,101455.53
2023-06-01T00:44:04.715Z,101454.69
2023-06-01T00:46:35.264Z,101455.53
2023-06-01T00:49:02.265Z,101455.56
2023-06-01T00:51:29.336Z,101454.66
2023-06-01T00:53:56.458Z,101461.59
2023-06-01T00:56:23.453Z,101446.03
2023-06-01T00:58:51.040Z,101442.59
2023-06-01T01:01:21.016Z,101449.50
2023-06-01T01:03:50.945Z,101453.81
2023-06-01T01:06:29.503Z,101444.28
2023-06-01T01:09:17.074Z,101455.53
2023-06-01T01:12:01.450Z,101450.38
2023-06-01T01:14:41.118Z,101451.22
2023-06-01T01:17:44.570Z,101452.94
2023-06-01T01:20:36.658Z,101454.66
2023-06-01T01:23:40.078Z,101456.41
2023-06-01T01:26:29.922Z,101451.19
2023-06-01T01:29:05.050Z,101456.38
2023-06-01T01:31:33.766Z,101448.59
2023-06-01T01:34:03.368Z,101458.09
2023-06-01T01:36:31.230Z,101453.78
2023-06-01T01:38:58.246Z,101465.84
2023-06-01T01:41:25.291Z,101459.81
2023-06-01T01:43:53.937Z,101464.09
2023-06-01T01:46:26.817Z,101464.91
2023-06-01T01:48:53.864Z,101470.06
2023-06-01T01:51:33.150Z,101470.91
2023-06-01T01:54:01.774Z,101476.06
2023-06-01T01:56:29.195Z,101468.34
2023-06-01T01:58:56.759Z,101466.59
2023-06-01T02:01:24.494Z,101466.63
2023-06-01T02:04:08.534Z,101469.16
2023-06-01T02:06:37.483Z,101466.56
2023-06-01T02:09:08.706Z,101471.78
2023-06-01T02:11:36.990Z,101468.19
2023-06-01T02:14:04.570Z,101467.28
2023-06-01T02:16:35.010Z,101475.94
2023-06-01T02:19:03.744Z,101471.59
2023-06-01T02:21:32.341Z,101469.00
2023-06-01T02:24:06.852Z,101462.03
2023-06-01T02:26:34.670Z,101461.25
2023-06-01T02:29:06.567Z,101457.81
2023-06-01T02:31:34.541Z,101454.34
2023-06-01T02:34:02.528Z,101456.94
2023-06-01T02:36:33.253Z,101449.16
2023-06-01T02:39:00.936Z,101450.91
2023-06-01T02:41:28.061Z,101455.25
2023-06-01T02:43:56.083Z,101456.09
2023-06-01T02:46:23.216Z,101455.25
2023-06-01T02:48:50.279Z,101445.66
2023-06-01T02:51:19.828Z,101446.53
2023-06-01T02:53:50.073Z,101447.47
2023-06-01T02:56:17.127Z,101446.59
2023-06-01T02:59:13.317Z,101452.59
2023-06-01T03:01:47.526Z,101451.72
2023-06-01T03:04:16.330Z,101449.06
2023-06-01T03:06:44.615Z,101452.50
2023-06-01T03:09:35.549Z,101451.69
2023-06-01T03:12:18.751Z,101450.03
2023-06-01T03:14:45.889Z,101449.16
2023-06-01T03:17:12.846Z,101448.25
2023-06-01T03:19:39.830Z,101450.81
2023-06-01T03:22:18.898Z,101451.69
2023-06-01T03:24:50.562Z,101448.25
2023-06-01T03:27:21.089Z,101459.47
2023-06-01T03:29:48.601Z,101454.25
2023-06-01T03:32:15.625Z,101451.66
2023-06-01T03:34:43.963Z,101460.31
2023-06-01T03:37:11.009Z,101456.81
2023-06-01T03:39:40.366Z,101458.56
2023-06-01T03:42:10.783Z,101468.09
2023-06-01T03:44:41.551Z,101468.16
2023-06-01T03:47:09.377Z,101473.31
2023-06-01T03:49:36.333Z,101467.31
2023-06-01T03:52:07.470Z,101467.31
2023-06-01T03:54:35.782Z,101466.47
2023-06-01T03:57:04.227Z,101467.34
2023-06-01T03:59:31.267Z,101469.06
2023-06-01T04:01:58.755Z,101467.31
2023-06-01T04:04:29.683Z,101458.69
2023-06-01T04:07:02.153Z,101471.66
2023-06-01T04:09:29.457Z,101466.47
2023-06-01T04:11:56.932Z,101468.22
2023-06-01T04:14:24.002Z,101468.28
2023-06-01T04:16:51.277Z,101469.94
2023-06-01T04:19:18.899Z,101482.03
2023-06-01T04:21:47.209Z,101479.50
2023-06-01T04:24:17.254Z,101477.78
2023-06-01T04:26:45.620Z,101467.41
2023-06-01T04:29:14.504Z,101477.78
2023-06-01T04:31:42.485Z,101480.38
2023-06-01T04:34:11.046Z,101477.75
2023-06-01T04:36:40.186Z,101477.78
2023-06-01T04:39:08.644Z,101481.19
2023-06-01T04:41:36.750Z,101482.09
2023-06-01T04:44:07.172Z,101482.09
2023-06-01T04:46:34.380Z,101477.81
2023-06-01T04:49:02.200Z,101484.75
2023-06-01T04:51:32.378Z,101487.41
2023-06-01T04:54:00.314Z,101478.75
2023-06-01T04:56:30.571Z,101481.34
2023-06-01T04:58:58.628Z,101475.28
2023-06-01T05:01:31.151Z,101478.72
2023-06-01T05:03:59.567Z,101481.34
2023-06-01T05:06:27.578Z,101481.38
2023-06-01T05:08:55.003Z,101482.25
2023-06-01T05:11:23.060Z,101487.44
2023-06-01T05:13:52.313Z,101489.19
2023-06-01T05:16:19.781Z,101480.56
2023-06-01T05:18:47.746Z,101485.75
2023-06-01T05:21:15.191Z,101486.63
2023-06-01T05:23:43.148Z,101480.59
2023-06-01T05:26:10.192Z,101484.06
2023-06-01T05:28:38.157Z,101483.22
2023-06-01T05:31:08.649Z,101478.88
2023-06-01T05:33:42.051Z,101474.56
2023-06-01T05:36:09.606Z,101479.72
2023-06-01T05:38:36.759Z,101485.81
2023-06-01T05:41:04.010Z,101468.53
2023-06-01T05:43:33.095Z,101477.16
2023-06-01T05:46:02.184Z,101477.16
2023-06-01T05:48:31.197Z,101478.94
2023-06-01T05:50:58.291Z,101487.56
2023-06-01T05:53:26.147Z,101489.28
2023-06-01T05:55:53.505Z,101488.44
2023-06-01T05:58:21.334Z,101487.56
2023-06-01T06:00:48.494Z,101491.91
2023-06-01T06:03:15.678Z,101485.84
2023-06-01T06:05:42.671Z,101489.28
2023-06-01T06:08:13.538Z,101483.22
2023-06-01T06:10:40.578Z,101482.38
2023-06-01T06:13:07.563Z,101486.69
2023-06-01T06:15:34.565Z,101491.03
2023-06-01T06:18:01.654Z,101494.47
2023-06-01T06:20:28.857Z,101497.94
2023-06-01T06:22:55.894Z,101506.56
2023-06-01T06:25:23.480Z,101500.50
2023-06-01T06:27:50.475Z,101499.66
2023-06-01T06:30:17.916Z,101498.78
2023-06-01T06:32:44.954Z,101497.06
2023-06-01T06:35:14.201Z,101503.94
2023-06-01T06:37:42.918Z,101495.28
2023-06-01T06:40:10.885Z,101501.34
2023-06-01T06:42:37.913Z,101497.84
2023-06-01T06:45:06.327Z,101502.16
2023-06-01T06:47:33.724Z,101500.47
2023-06-01T06:50:00.782Z,101502.16
2023-06-01T06:52:27.841Z,101500.41
2023-06-01T06:54:54.786Z,101502.97
2023-06-01T06:57:21.871Z,101502.97
2023-06-01T06:59:48.990Z,101509.03
2023-06-01T07:02:19.053Z,101509.88
2023-06-01T07:04:46.116Z,101515.91
2023-06-01T07:07:13.121Z,101512.41
2023-06-01T07:09:40.085Z,101521.03
2023-06-01T07:12:07.524Z,101519.31
2023-06-01T07:14:34.791Z,101524.44
2023-06-01T07:17:01.856Z,101521.84
2023-06-01T07:19:34.467Z,101520.03
2023-06-01T07:22:02.401Z,101519.13
2023-06-01T07:24:29.681Z,101524.28
2023-06-01T07:26:58.682Z,101520.78
2023-06-01T07:29:26.021Z,101519.88
2023-06-01T07:31:53.777Z,101515.56
2023-06-01T07:34:21.231Z,101520.75
2023-06-01T07:36:50.367Z,101519.03
2023-06-01T07:39:17.763Z,101519.91
2023-06-01T07:41:47.929Z,101519.06
2023-06-01T07:44:19.379Z,101519.00
2023-06-01T07:46:46.609Z,101518.03
2023-06-01T07:49:16.509Z,101519.69
2023-06-01T07:51:44.637Z,101517.03
2023-06-01T07:54:11.916Z,101514.34
2023-06-01T07:56:39.008Z,101522.09
2023-06-01T07:59:06.252Z,101509.94
2023-06-01T08:01:34.032Z,101507.28
2023-06-01T08:04:02.888Z,101516.81
2023-06-01T08:06:37.524Z,101511.63
2023-06-01T08:09:04.980Z,101514.19
2023-06-01T08:11:32.040Z,101512.41
2023-06-01T08:14:01.192Z,101504.59
2023-06-01T08:16:28.435Z,101511.47
2023-06-01T08:18:56.982Z,101513.09
2023-06-01T08:21:26.254Z,101506.09
2023-06-01T08:23:56.481Z,101502.56
2023-06-01T08:26:24.725Z,101502.53
2023-06-01T08:28:54.290Z,101501.56
2023-06-01T08:31:22.556Z,101498.94
2023-06-01T08:33:50.640Z,101501.38
2023-06-01T08:36:18.942Z,101497.88
2023-06-01T08:38:47.461Z,101499.56
2023-06-01T08:41:51.855Z,101500.34
2023-06-01T08:44:23.755Z,101492.47
2023-06-01T08:46:51.253Z,101488.97
2023-06-01T08:49:20.680Z,101494.94
2023-06-01T08:51:52.365Z,101494.16
2023-06-01T08:54:19.538Z,101497.69
2023-06-01T08:56:46.670Z,101489.78
2023-06-01T08:59:16.435Z,101498.50
2023-06-01T09:01:44.072Z,101489.84
2023-06-01T09:04:11.156Z,101499.25
2023-06-01T09:06:38.298Z,101498.38
2023-06-01T09:09:05.529Z,101498.13
2023-06-01T09:11:32.744Z,101495.53
2023-06-01T09:13:59.803Z,101502.31
2023-06-01T09:16:39.866Z,101497.91
2023-06-01T09:19:08.119Z,101499.56
2023-06-01T09:21:35.167Z,101490.84
2023-06-01T09:24:23.135Z,101498.38
2023-06-01T09:26:51.080Z,101499.97
2023-06-01T09:29:18.584Z,101497.44
2023-06-01T09:31:47.182Z,101504.34
2023-06-01T09:34:20.794Z,101495.56
2023-06-01T09:36:53.742Z,101492.84
2023-06-01T09:39:23.947Z,101483.38
2023-06-01T09:41:55.271Z,101489.59
2023-06-01T09:44:32.928Z,101489.50
2023-06-01T09:47:01.090Z,101493.69
2023-06-01T09:49:33.503Z,101478.09
2023-06-01T09:52:06.298Z,101484.06
2023-06-01T09:54:37.096Z,101478.66
2023-06-01T09:57:11.511Z,101480.31
2023-06-01T09:59:48.901Z,101482.00
2023-06-01T10:02:21.298Z,101473.25
2023-06-01T10:04:59.319Z,101476.59
2023-06-01T10:07:34.668Z,101479.84
2023-06-01T10:10:04.047Z,101471.25
2023-06-01T10:12:34.321Z,101478.94
2023-06-01T10:15:16.162Z,101484.94
2023-06-01T10:17:51.862Z,101476.03
2023-06-01T10:20:19.320Z,101476.06
2023-06-01T10:22:47.224Z,101466.38
2023-06-01T10:25:18.917Z,101471.66
2023-06-01T10:28:16.286Z,101474.22
2023-06-01T10:30:43.352Z,101469.97
2023-06-01T10:33:10.593Z,101473.34
2023-06-01T10:35:43.997Z,101474.97
2023-06-01T10:38:11.199Z,101475.84
2023-06-01T10:40:38.798Z,101475.13
2023-06-01T10:43:06.965Z,101477.94
2023-06-01T10:45:42.946Z,101473.63
2023-06-01T10:48:12.078Z,101476.72
2023-06-01T10:50:43.380Z,101468.84
2023-06-01T10:53:31.409Z,101462.72
2023-06-01T10:56:24.527Z,101473.88
2023-06-01T10:59:18.169Z,101459.75
2023-06-01T11:01:48.353Z,101462.38
2023-06-01T11:04:16.741Z,101466.63
2023-06-01T11:06:45.036Z,101463.00
2023-06-01T11:09:13.502Z,101456.66
2023-06-01T11:11:51.939Z,101468.09
2023-06-01T11:14:25.164Z,101461.97
2023-06-01T11:16:55.824Z,101457.59
2023-06-01T11:19:29.711Z,101454.03
2023-06-01T11:22:03.239Z,101447.25
2023-06-01T11:24:38.122Z,101451.69
2023-06-01T11:27:10.521Z,101449.16
2023-06-01T11:29:39.484Z,101454.16
2023-06-01T11:32:07.588Z,101452.28
2023-06-01T11:34:43.134Z,101447.50
2023-06-01T11:37:19.616Z,101438.97
2023-06-01T11:39:47.836Z,101439.63
2023-06-01T11:42:21.046Z,101433.41
2023-06-01T11:44:58.396Z,101431.50
2023-06-01T11:47:32.774Z,101433.97
2023-06-01T11:50:00.277Z,101444.63
2023-06-01T11:52:30.214Z,101450.75
2023-06-01T11:55:04.391Z,101443.50
2023-06-01T11:57:31.610Z,101442.72
2023-06-01T12:00:00.483Z,101427.88
2023-06-01T12:02:31.238Z,101426.31
2023-06-01T12:05:14.886Z,101428.28
2023-06-01T12:07:47.561Z,101426.59
2023-06-01T12:10:18.031Z,101428.28
2023-06-01T12:12:47.999Z,101421.53
2023-06-01T12:15:16.524Z,101418.69
2023-06-01T12:17:57.421Z,101406.34
2023-06-01T12:20:29.901Z,101413.22
2023-06-01T12:23:02.301Z,101392.84
2023-06-01T12:25:29.306Z,101394.88
2023-06-01T12:28:06.108Z,101401.66
2023-06-01T12:30:33.474Z,101410.00
2023-06-01T12:33:01.460Z,101407.00
2023-06-01T12:35:30.850Z,101412.97
2023-06-01T12:38:10.031Z,101411.16
2023-06-01T12:40:40.438Z,101417.44
2023-06-01T12:43:20.409Z,101409.72
2023-06-01T12:45:47.793Z,101415.03
2023-06-01T12:48:37.026Z,101414.09
2023-06-01T12:51:05.363Z,101408.44
2023-06-01T12:53:38.166Z,101406.22
2023-06-01T12:56:06.125Z,101401.88
2023-06-01T12:58:39.268Z,101400.19
2023-06-01T13:01:09.202Z,101391.50
2023-06-01T13:03:38.653Z,101396.53
2023-06-01T13:06:06.242Z,101399.84
2023-06-01T13:08:36.738Z,101395.97
2023-06-01T13:11:07.678Z,101390.56
2023-06-01T13:13:34.705Z,101389.50
2023-06-01T13:16:02.998Z,101379.06
2023-06-01T13:18:30.322Z,101381.47
2023-06-01T13:21:00.293Z,101379.69
2023-06-01T13:23:30.799Z,101372.63
2023-06-01T13:26:00.666Z,101369.72
2023-06-01T13:28:31.669Z,101360.78
2023-06-01T13:30:58.827Z,101369.28
2023-06-01T13:33:25.920Z,101352.03
2023-06-01T13:35:53.209Z,101349.28
2023-06-01T13:38:20.423Z,101346.09
2023-06-01T13:40:47.871Z,101346.28
2023-06-01T13:43:14.914Z,101342.41
2023-06-01T13:45:42.152Z,101339.91
2023-06-01T13:48:09.256Z,101334.81
2023-06-01T13:50:36.331Z,101328.69
2023-06-01T13:53:06.472Z,101330.47
2023-06-01T13:55:33.551Z,101326.22
2023-06-01T13:58:00.716Z,101323.63
2023-06-01T14:00:28.849Z,101325.25
2023-06-01T14:02:58.923Z,101335.81
2023-06-01T14:05:35.731Z,101324.63
2023-06-01T14:08:12.547Z,101329.16
2023-06-01T14:10:39.650Z,101329.16
2023-06-01T14:13:06.855Z,101324.69
2023-06-01T14:15:34.070Z,101336.91
2023-06-01T14:18:01.305Z,101342.78
2023-06-01T14:20:29.270Z,101337.16
2023-06-01T14:22:56.372Z,101347.41
2023-06-01T14:25:23.351Z,101347.19
2023-06-01T14:27:51.333Z,101348.94
2023-06-01T14:30:18.559Z,101347.59
2023-06-01T14:32:46.604Z,101341.91
2023-06-01T14:35:17.823Z,101343.50
2023-06-01T14:37:50.045Z,101345.06
2023-06-01T14:40:18.194Z,101344.78
2023-06-01T14:42:45.885Z,101327.25
2023-06-01T14:45:12.996Z,101326.50
2023-06-01T14:47:42.929Z,101328.25
2023-06-01T14:50:10.869Z,101321.84
2023-06-01T14:52:38.036Z,101320.88
2023-06-01T14:55:05.758Z,101320.91
2023-06-01T14:57:34.322Z,101322.50
2023-06-01T15:00:06.204Z,101309.16
2023-06-01T15:02:36.512Z,101303.00
2023-06-01T15:05:05.173Z,101298.66
2023-06-01T15:07:32.361Z,101301.31
2023-06-01T15:09:59.356Z,101289.81
2023-06-01T15:12:26.458Z,101292.69
2023-06-01T15:14:53.446Z,101276.88
2023-06-01T15:17:20.892Z,101272.50
2023-06-01T15:19:49.764Z,101274.69
2023-06-01T15:22:19.327Z,101267.69
2023-06-01T15:24:46.504Z,101274.09
2023-06-01T15:27:13.646Z,101272.94
2023-06-01T15:29:40.898Z,101267.75
2023-06-01T15:32:08.365Z,101269.81
2023-06-01T15:34:35.491Z,101260.75
2023-06-01T15:37:03.078Z,101266.19
2023-06-01T15:39:30.116Z,101259.88
2023-06-01T15:41:57.759Z,101262.97
2023-06-01T15:44:25.253Z,101268.53
2023-06-01T15:46:52.349Z,101261.88
2023-06-01T15:49:19.808Z,101255.22
2023-06-01T15:51:50.914Z,101262.31
2023-06-01T15:54:17.952Z,101257.16
2023-06-01T15:56:44.973Z,101264.44
2023-06-01T15:59:12.479Z,101255.88
2023-06-01T16:01:39.945Z,101255.81
2023-06-01T16:04:07.234Z,101269.06
2023-06-01T16:06:34.352Z,101266.69
2023-06-01T16:09:01.403Z,101266.78
2023-06-01T16:11:28.461Z,101263.44
2023-06-01T16:13:55.453Z,101268.09
2023-06-01T16:16:23.289Z,101264.72
2023-06-01T16:18:50.344Z,101265.97
2023-06-01T16:21:17.545Z,101270.59
2023-06-01T16:23:44.635Z,101263.06
2023-06-01T16:26:12.024Z,101271.09
2023-06-01T16:28:39.401Z,101277.31
2023-06-01T16:31:07.360Z,101287.00
2023-06-01T16:33:34.457Z,101272.34
2023-06-01T16:36:01.518Z,101280.19
2023-06-01T16:38:28.852Z,101289.81
2023-06-01T16:40:56.136Z,101274.28
2023-06-01T16:43:23.191Z,101282.94
2023-06-01T16:45:50.334Z,101288.19
2023-06-01T16:48:17.587Z,101281.47
2023-06-01T16:50:47.024Z,101285.00
2023-06-01T16:53:17.279Z,101297.22
2023-06-01T16:55:44.994Z,101295.66
2023-06-01T16:58:11.982Z,101293.09
2023-06-01T17:00:39.051Z,101301.81
2023-06-01T17:03:06.223Z,101298.41
2023-06-01T17:05:35.213Z,101290.72
2023-06-01T17:08:02.404Z,101304.50
2023-06-01T17:10:29.517Z,101301.13
2023-06-01T17:12:56.578Z,101305.47
2023-06-01T17:15:23.688Z,101309.88
2023-06-01T17:17:50.912Z,101318.56
2023-06-01T17:20:18.041Z,101301.38
2023-06-01T17:22:46.246Z,101307.41
2023-06-01T17:25:13.354Z,101316.13
2023-06-01T17:27:44.978Z,101314.44
2023-06-01T17:30:13.998Z,101301.53
2023-06-01T17:32:42.988Z,101307.53
2023-06-01T17:35:10.809Z,101305.00
2023-06-01T17:37:37.829Z,101304.19
2023-06-01T17:40:05.297Z,101304.19
2023-06-01T17:42:32.460Z,101294.88
2023-06-01T17:44:59.639Z,101294.81
2023-06-01T17:47:26.852Z,101306.09
2023-06-01T17:49:54.846Z,101290.63
2023-06-01T17:52:22.319Z,101291.53
2023-06-01T17:54:49.488Z,101305.31
2023-06-01T17:57:16.852Z,101307.97
2023-06-01T17:59:44.483Z,101318.41
2023-06-01T18:02:11.666Z,101311.53
2023-06-01T18:04:38.975Z,101305.44
2023-06-01T18:07:06.654Z,101297.00
2023-06-01T18:09:33.767Z,101300.41
2023-06-01T18:12:01.308Z,101285.81
2023-06-01T18:14:28.502Z,101300.47
2023-06-01T18:16:55.679Z,101297.84
2023-06-01T18:19:24.998Z,101290.13
2023-06-01T18:21:52.049Z,101288.44
2023-06-01T18:24:19.202Z,101291.03
2023-06-01T18:26:46.222Z,101287.59
2023-06-01T18:29:13.357Z,101282.44
2023-06-01T18:31:42.412Z,101291.22
2023-06-01T18:34:09.877Z,101298.97
2023-06-01T18:36:37.116Z,101299.03
2023-06-01T18:39:04.767Z,101300.84
2023-06-01T18:41:31.899Z,101300.84
2023-06-01T18:44:00.102Z,101300.91
2023-06-01T18:46:28.094Z,101300.91
2023-06-01T18:48:55.322Z,101300.06
2023-06-01T18:51:22.822Z,101300.97
2023-06-01T18:53:52.297Z,101302.78
2023-06-01T18:56:19.630Z,101301.91
2023-06-01T18:58:47.565Z,101306.28
2023-06-01T19:01:17.223Z,101298.63
2023-06-01T19:03:48.211Z,101294.31
2023-06-01T19:06:15.501Z,101296.09
2023-06-01T19:08:43.023Z,101301.34
2023-06-01T19:11:10.484Z,101294.69
2023-06-01T19:13:41.055Z,101309.47
2023-06-01T19:16:20.952Z,101310.31
2023-06-01T19:18:50.593Z,101307.81
2023-06-01T19:21:20.767Z,101310.31
2023-06-01T19:23:56.119Z,101326.91
2023-06-01T19:26:28.538Z,101320.88
2023-06-01T19:29:02.062Z,101330.44
2023-06-01T19:31:35.167Z,101329.66
2023-06-01T19:34:06.656Z,101328.84
2023-06-01T19:36:42.623Z,101340.03
2023-06-01T19:39:16.245Z,101339.22
2023-06-01T19:41:44.471Z,101321.91
2023-06-01T19:44:17.715Z,101338.44
2023-06-01T19:46:44.942Z,101329.88
2023-06-01T19:49:17.598Z,101344.56
2023-06-01T19:51:47.649Z,101347.19
2023-06-01T19:54:23.910Z,101346.34
2023-06-01T19:56:55.114Z,101348.97
2023-06-01T19:59:25.306Z,101350.69
2023-06-01T20:01:53.780Z,101355.09
2023-06-01T20:04:21.371Z,101362.91
2023-06-01T20:06:50.975Z,101366.38
2023-06-01T20:09:20.016Z,101349.94
2023-06-01T20:11:49.241Z,101350.91
2023-06-01T20:14:30.222Z,101351.09
2023-06-01T20:16:59.070Z,101346.88
2023-06-01T20:19:26.195Z,101346.06
2023-06-01T20:21:55.246Z,101345.19
2023-06-01T20:24:27.750Z,101352.06
2023-06-01T20:26:59.290Z,101349.44
2023-06-01T20:29:28.665Z,101357.25
2023-06-01T20:31:57.921Z,101355.63
2023-06-01T20:34:26.942Z,101354.84
2023-06-01T20:36:54.626Z,101358.31
2023-06-01T20:39:23.071Z,101353.97
2023-06-01T20:41:52.621Z,101360.03
2023-06-01T20:44:23.467Z,101357.50
2023-06-01T20:46:52.668Z,101358.47
2023-06-01T20:49:24.336Z,101354.25
2023-06-01T20:51:53.146Z,101359.47
2023-06-01T20:54:22.389Z,101349.88
2023-06-01T20:56:54.573Z,101353.31
2023-06-01T20:59:25.065Z,101350.72
2023-06-01T21:01:52.917Z,101349.81
2023-06-01T21:04:22.706Z,101355.00
2023-06-01T21:06:50.586Z,101347.19
2023-06-01T21:09:20.096Z,101351.50
2023-06-01T21:11:49.048Z,101353.28
2023-06-01T21:14:17.488Z,101349.06
2023-06-01T21:16:44.957Z,101359.47
2023-06-01T21:19:12.540Z,101356.09
2023-06-01T21:21:41.243Z,101337.16
2023-06-01T21:24:09.699Z,101349.28
2023-06-01T21:26:38.349Z,101356.22
2023-06-01T21:29:05.783Z,101348.50
2023-06-01T21:31:33.228Z,101348.53
2023-06-01T21:34:00.515Z,101344.25
2023-06-01T21:36:27.770Z,101354.69
2023-06-01T21:38:57.434Z,101353.88
2023-06-01T21:41:24.654Z,101349.63
2023-06-01T21:43:51.890Z,101355.69
2023-06-01T21:46:19.076Z,101353.91
2023-06-01T21:48:46.455Z,101352.16
2023-06-01T21:51:13.675Z,101350.41
2023-06-01T21:53:44.335Z,101358.22
2023-06-01T21:56:11.952Z,101352.22
2023-06-01T21:58:42.530Z,101348.00
2023-06-01T22:01:10.219Z,101347.22
2023-06-01T22:03:39.017Z,101350.72
2023-06-01T22:06:06.762Z,101340.31
2023-06-01T22:08:34.123Z,101344.59
2023-06-01T22:11:01.409Z,101345.41
2023-06-01T22:13:28.576Z,101344.56
2023-06-01T22:15:58.806Z,101348.88
2023-06-01T22:18:25.886Z,101347.16
2023-06-01T22:20:52.927Z,101357.56
2023-06-01T22:23:20.791Z,101353.25
2023-06-01T22:25:47.866Z,101361.88
2023-06-01T22:28:15.031Z,101355.91
2023-06-01T22:30:42.195Z,101342.06
2023-06-01T22:33:09.247Z,101360.25
2023-06-01T22:35:36.328Z,101357.69
2023-06-01T22:38:03.515Z,101357.69
2023-06-01T22:40:30.598Z,101365.44
2023-06-01T22:42:58.344Z,101366.34
2023-06-01T22:45:25.464Z,101361.19
2023-06-01T22:47:52.569Z,101369.00
2023-06-01T22:50:20.447Z,101375.03
2023-06-01T22:52:49.435Z,101373.28
2023-06-01T22:55:17.367Z,101374.19
2023-06-01T22:57:47.022Z,101371.59
2023-06-01T23:00:14.572Z,101372.44
2023-06-01T23:02:41.782Z,101373.34
2023-06-01T23:05:09.374Z,101375.09
2023-06-01T23:07:37.814Z,101370.78
2023-06-01T23:10:05.825Z,101370.81
2023-06-01T23:12:35.921Z,101368.25
2023-06-01T23:15:04.573Z,101362.22
2023-06-01T23:17:34.102Z,101371.75
2023-06-01T23:20:05.492Z,101365.66
2023-06-01T23:22:38.005Z,101364.75
2023-06-01T23:25:06.142Z,101363.03
2023-06-01T23:27:33.550Z,101364.75
2023-06-01T23:30:01.198Z,101367.31
2023-06-01T23:32:28.640Z,101357.84
2023-06-01T23:34:55.773Z,101358.69
2023-06-01T23:37:28.976Z,101353.47
2023-06-01T23:39:57.330Z,101344.84
2023-06-01T23:42:24.615Z,101346.59
2023-06-01T23:44:52.914Z,101343.13
2023-06-01T23:47:21.848Z,101347.47
2023-06-01T23:49:49.421Z,101344.84
2023-06-01T23:52:16.675Z,101345.75
2023-06-01T23:54:43.768Z,101350.91
2023-06-01T23:57:10.995Z,101349.19
2023-06-01T23:59:38.141Z,101351.78
